Map

Track Data

SID SEASON NUMBER BASIN SUBBASIN NAME ISO_TIME NATURE LAT LON WMO_WIND WMO_PRES WMO_AGENCY TRACK_TYPE DIST2LAND LANDFALL IFLAG USA_AGENCY USA_ATCF_ID USA_LAT USA_LON USA_RECORD USA_STATUS USA_WIND USA_PRES USA_SSHS USA_R34_NE USA_R34_SE USA_R34_SW USA_R34_NW USA_R50_NE USA_R50_SE USA_R50_SW USA_R50_NW USA_R64_NE USA_R64_SE USA_R64_SW USA_R64_NW USA_POCI USA_ROCI USA_RMW USA_EYE TOKYO_LAT TOKYO_LON TOKYO_GRADE TOKYO_WIND TOKYO_PRES TOKYO_R50_DIR TOKYO_R50_LONG TOKYO_R50_SHORT TOKYO_R30_DIR TOKYO_R30_LONG TOKYO_R30_SHORT TOKYO_LAND CMA_LAT CMA_LON CMA_CAT CMA_WIND CMA_PRES HKO_LAT HKO_LON HKO_CAT HKO_WIND HKO_PRES NEWDELHI_LAT NEWDELHI_LON NEWDELHI_GRADE NEWDELHI_WIND NEWDELHI_PRES NEWDELHI_CI NEWDELHI_DP NEWDELHI_POCI REUNION_LAT REUNION_LON REUNION_TYPE REUNION_WIND REUNION_PRES REUNION_TNUM REUNION_CI REUNION_RMW REUNION_R34_NE REUNION_R34_SE REUNION_R34_SW REUNION_R34_NW REUNION_R50_NE REUNION_R50_SE REUNION_R50_SW REUNION_R50_NW REUNION_R64_NE REUNION_R64_SE REUNION_R64_SW REUNION_R64_NW BOM_LAT BOM_LON BOM_TYPE BOM_WIND BOM_PRES BOM_TNUM BOM_CI BOM_RMW BOM_R34_NE BOM_R34_SE BOM_R34_SW BOM_R34_NW BOM_R50_NE BOM_R50_SE BOM_R50_SW BOM_R50_NW BOM_R64_NE BOM_R64_SE BOM_R64_SW BOM_R64_NW BOM_ROCI BOM_POCI BOM_EYE BOM_POS_METHOD BOM_PRES_METHOD NADI_LAT NADI_LON NADI_CAT NADI_WIND NADI_PRES WELLINGTON_LAT WELLINGTON_LON WELLINGTON_WIND WELLINGTON_PRES DS824_LAT DS824_LON DS824_STAGE DS824_WIND DS824_PRES TD9636_LAT TD9636_LON TD9636_STAGE TD9636_WIND TD9636_PRES TD9635_LAT TD9635_LON TD9635_WIND TD9635_PRES TD9635_ROCI NEUMANN_LAT NEUMANN_LON NEUMANN_CLASS NEUMANN_WIND NEUMANN_PRES MLC_LAT MLC_LON MLC_CLASS MLC_WIND MLC_PRES USA_GUST BOM_GUST BOM_GUST_PER REUNION_GUST REUNION_GUST_PER USA_SEAHGT USA_SEARAD_NE USA_SEARAD_SE USA_SEARAD_SW USA_SEARAD_NW STORM_SPEED STORM_DIR
1891293N10084 1891 49 NI BB NOT_NAMED 1891-10-20 00:00:00 TS 10.2000 84.1000 main 358 355 _________O____ -1 10.2000 84.1000 TC 30 2 326
1891293N10084 1891 49 NI BB NOT_NAMED 1891-10-20 03:00:00 TS 10.2733 84.0400 main 355 346 _________PO___ -1 10.3100 84.0100 TC 30 10.2000 84.1000 1 2 314
1891293N10084 1891 49 NI BB NOT_NAMED 1891-10-20 06:00:00 TS 10.3544 83.9332 main 352 343 _________OP___ -1 10.4000 83.9000 TC 30 10.2859 83.9829 1 3 302
1891293N10084 1891 49 NI BB NOT_NAMED 1891-10-20 09:00:00 TS 10.4189 83.8025 main 343 333 _________PP___ -1 10.4575 83.7575 TC 30 10.3675 83.8626 1 3 294
1891293N10084 1891 49 NI BB NOT_NAMED 1891-10-20 12:00:00 TS 10.4702 83.6680 main 340 323 _________OP___ -1 10.5000 83.6000 TC 30 10.4403 83.7360 1 3 292
1891293N10084 1891 49 NI BB NOT_NAMED 1891-10-20 15:00:00 TS 10.5288 83.5213 main 323 320 _________PO___ -1 10.5575 83.4425 TC 30 10.5000 83.6000 1 3 290
1891293N10084 1891 49 NI BB NOT_NAMED 1891-10-20 18:00:00 TS 10.5717 83.3773 main 320 310 _________OP___ -1 10.6000 83.3000 TC 30 10.5435 83.4547 1 3 283
1891293N10084 1891 49 NI BB NOT_NAMED 1891-10-20 21:00:00 TS 10.5900 83.2450 main 300 291 _________PP___ -1 10.6075 83.1775 TC 30 10.5725 83.3125 1 2 276
1891293N10084 1891 49 NI BB NOT_NAMED 1891-10-21 00:00:00 TS 10.5952 83.1445 main 291 291 _________OP___ -1 10.6000 83.1000 TC 30 10.5903 83.1890 1 2 274
1891293N10084 1891 49 NI BB NOT_NAMED 1891-10-21 03:00:00 TS 10.6000 83.0925 main 291 291 _________PO___ -1 10.6000 83.0850 TC 30 10.6000 83.1000 1 1 279
1891293N10084 1891 49 NI BB NOT_NAMED 1891-10-21 06:00:00 TS 10.6036 83.0820 main 291 291 _________OP___ -1 10.6000 83.1000 TC 30 10.6072 83.0640 1 0 0
1891293N10084 1891 49 NI BB NOT_NAMED 1891-10-21 09:00:00 TS 10.6037 83.0812 main 291 291 _________PP___ -1 10.6000 83.1000 TC 30 10.6075 83.0625 1 0 0
1891293N10084 1891 49 NI BB NOT_NAMED 1891-10-21 12:00:00 TS 10.6020 83.0898 main 291 291 _________OP___ -1 10.6000 83.1000 TC 30 10.6040 83.0797 1 0 0
1891293N10084 1891 49 NI BB NOT_NAMED 1891-10-21 15:00:00 TS 10.6000 83.1000 main 291 291 _________PO___ -1 10.6000 83.1000 TC 30 10.6000 83.1000 1 0 114
1891293N10084 1891 49 NI BB NOT_NAMED 1891-10-21 18:00:00 TS 10.5857 83.1284 main 291 291 _________OP___ -1 10.6000 83.1000 TC 30 10.5714 83.1567 1 1 118
1891293N10084 1891 49 NI BB NOT_NAMED 1891-10-21 21:00:00 TS 10.5624 83.1711 main 300 300 _________PP___ -1 10.5775 83.1375 TC 30 10.5473 83.2047 1 0 0
1891293N10084 1891 49 NI BB NOT_NAMED 1891-10-22 00:00:00 TS 10.5747 83.1502 main 300 281 _________OP___ -1 10.6000 83.1000 TC 30 10.5495 83.2004 1 2 302
1891293N10084 1891 49 NI BB NOT_NAMED 1891-10-22 03:00:00 TS 10.6600 83.0087 main 287 267 _________PO___ -1 10.7199 82.9175 TC 30 10.6000 83.1000 1 5 299
1891293N10084 1891 49 NI BB NOT_NAMED 1891-10-22 06:00:00 TS 10.8084 82.7274 main 267 250 _________OP___ -1 10.9000 82.6000 TC 30 10.7167 82.8548 1 7 297
1891293N10084 1891 49 NI BB NOT_NAMED 1891-10-22 09:00:00 TS 10.9877 82.3426 main 251 218 _________PP___ -1 11.0926 82.1725 TC 30 10.8828 82.5126 1 9 295
1891293N10084 1891 49 NI BB NOT_NAMED 1891-10-22 12:00:00 TS 11.1912 81.9070 main 218 176 _________OP___ -1 11.3000 81.7000 TC 30 11.0824 82.1141 1 9 296
1891293N10084 1891 49 NI BB NOT_NAMED 1891-10-22 15:00:00 TS 11.3962 81.4925 main 176 145 _________PO___ -1 11.4924 81.2849 TC 30 11.3000 81.7000 1 9 298
1891293N10084 1891 49 NI BB NOT_NAMED 1891-10-22 18:00:00 TS 11.5987 81.1304 main 137 97 _________OP___ -1 11.7000 80.9000 TC 30 11.5228 81.3033 1 8 301
1891293N10084 1891 49 NI BB NOT_NAMED 1891-10-22 21:00:00 TS 11.8246 80.7723 main 97 58 _________PP___ -1 11.9401 80.5426 TC 30 11.7476 80.9254 1 8 304
1891293N10084 1891 49 NI BB NOT_NAMED 1891-10-23 00:00:00 TS 12.0491 80.4398 main 48 21 _________OP___ -1 12.2000 80.2000 TC 30 11.9736 80.5597 1 7 304
1891293N10084 1891 49 NI BB NOT_NAMED 1891-10-23 03:00:00 NR 12.2000 80.2000 main 21 __________O___ -1 TC 12.2000 80.2000 1 6 303

About IBTrACS Database

This database is a web-friendly format of International Best Track Archive for Climate Stewardship (IBTrACS), a global best track data archive curated by NOAA dating back to 1842.

Updated: 2021-10-25